Time;durP1;ratioP1;P1;durP2;ratioP2;P2;SDS_P1;SDS_P2;PMS_P1;PMS_P2;Temp;Humidity;BMP_temperature;BMP_pressure;BME280_temperature;BME280_humidity;BME280_pressure;Samples;Min_cycle;Max_cycle;Signal;HPM_P1;HPM_P2
2021/05/22 00:01:20;;;;;;;17.88;2.72;;;12.00;99.90;;;;;;5072809;28;20051;-77
2021/05/22 00:03:46;;;;;;;12.88;2.45;;;12.00;99.90;;;;;;5071235;28;20032;-79
2021/05/22 00:06:12;;;;;;;17.27;2.90;;;12.00;99.90;;;;;;5071497;28;20048;-78
2021/05/22 00:08:39;;;;;;;14.40;2.30;;;12.10;99.90;;;;;;5071435;28;20069;-79
2021/05/22 00:11:05;;;;;;;16.08;2.90;;;12.20;99.90;;;;;;5069630;28;21601;-80
2021/05/22 00:13:31;;;;;;;14.13;2.47;;;12.20;99.90;;;;;;5072564;28;20036;-79
2021/05/22 00:15:56;;;;;;;15.48;2.30;;;12.20;99.90;;;;;;5071087;28;20037;-80
2021/05/22 00:18:22;;;;;;;18.55;3.17;;;12.00;99.90;;;;;;5051185;28;20389;-79
2021/05/22 00:20:48;;;;;;;14.57;2.50;;;12.00;99.90;;;;;;5069247;28;20047;-79
2021/05/22 00:23:15;;;;;;;10.35;2.17;;;12.00;99.90;;;;;;5059165;28;20040;-80
2021/05/22 00:25:41;;;;;;;16.73;3.20;;;12.00;99.90;;;;;;5053554;28;20464;-80
2021/05/22 00:28:07;;;;;;;20.20;2.92;;;12.00;99.90;;;;;;5072646;28;20067;-79
2021/05/22 00:30:33;;;;;;;15.43;2.80;;;12.00;99.90;;;;;;5072653;28;20415;-79
2021/05/22 00:32:59;;;;;;;21.35;2.60;;;12.40;99.90;;;;;;5054347;28;20036;-79
2021/05/22 00:35:25;;;;;;;20.23;3.05;;;12.00;99.90;;;;;;5071198;28;20044;-77
2021/05/22 00:37:51;;;;;;;11.35;2.00;;;12.00;99.90;;;;;;5071798;28;20036;-77
2021/05/22 00:40:17;;;;;;;16.20;2.65;;;11.90;99.90;;;;;;5072215;28;20111;-77
2021/05/22 00:42:44;;;;;;;15.63;3.20;;;11.90;99.90;;;;;;5069994;28;20040;-77
2021/05/22 00:45:22;;;;;;;12.95;2.40;;;11.80;99.90;;;;;;5070906;28;20062;-79
2021/05/22 00:47:54;;;;;;;13.88;2.20;;;11.80;99.90;;;;;;5072155;28;20094;-78
2021/05/22 00:50:27;;;;;;;18.02;2.70;;;11.70;99.90;;;;;;5063016;28;20036;-78
2021/05/22 00:52:53;;;;;;;12.50;2.20;;;11.70;99.90;;;;;;5076116;28;20055;-78
2021/05/22 00:55:20;;;;;;;14.77;2.50;;;11.60;99.90;;;;;;5062139;28;20042;-78
2021/05/22 00:57:46;;;;;;;13.70;2.42;;;11.90;99.90;;;;;;5073159;28;20044;-78
2021/05/22 01:00:17;;;;;;;16.38;2.55;;;11.60;99.90;;;;;;5075895;28;20036;-79
2021/05/22 01:02:45;;;;;;;17.73;3.20;;;11.50;99.90;;;;;;5058570;28;20377;-78
2021/05/22 01:05:13;;;;;;;14.07;2.70;;;11.50;99.90;;;;;;5075010;28;20377;-77
2021/05/22 01:07:40;;;;;;;18.20;2.60;;;11.50;99.90;;;;;;5075736;28;20044;-76
2021/05/22 01:10:07;;;;;;;9.45;2.10;;;11.50;99.90;;;;;;5053637;28;20086;-75
2021/05/22 01:12:36;;;;;;;20.70;2.92;;;11.30;99.90;;;;;;5074500;28;20032;-77
2021/05/22 01:15:09;;;;;;;16.15;2.65;;;11.50;99.90;;;;;;5075675;28;20098;-76
2021/05/22 01:17:41;;;;;;;15.93;2.90;;;11.50;99.90;;;;;;5076690;28;20035;-76
2021/05/22 01:20:34;;;;;;;15.65;2.47;;;11.80;99.90;;;;;;5075715;28;20040;-76
2021/05/22 01:23:21;;;;;;;14.65;2.75;;;11.50;99.90;;;;;;5076119;28;20036;-76
2021/05/22 01:25:49;;;;;;;11.32;2.30;;;11.40;99.90;;;;;;5074361;28;20033;-76
2021/05/22 01:28:15;;;;;;;16.45;2.83;;;11.50;99.90;;;;;;5075481;28;20040;-76
2021/05/22 01:30:44;;;;;;;10.52;2.50;;;11.50;99.90;;;;;;5075778;28;20062;-75
2021/05/22 01:33:10;;;;;;;16.08;2.50;;;11.50;99.90;;;;;;5073833;28;20040;-76
2021/05/22 01:35:39;;;;;;;18.88;2.47;;;11.50;99.90;;;;;;5057525;28;20124;-76
2021/05/22 01:38:05;;;;;;;28.00;3.20;;;11.60;99.90;;;;;;5053894;28;20075;-76
2021/05/22 01:40:31;;;;;;;14.90;2.70;;;11.60;99.90;;;;;;5069896;28;20042;-76
2021/05/22 01:42:57;;;;;;;16.95;2.63;;;11.60;99.90;;;;;;5073712;28;20427;-76
2021/05/22 01:45:29;;;;;;;15.88;2.78;;;11.60;99.90;;;;;;5066969;28;20058;-76
2021/05/22 01:47:57;;;;;;;12.40;3.05;;;11.60;99.90;;;;;;5069844;28;20043;-76
2021/05/22 01:50:26;;;;;;;12.48;2.38;;;11.60;99.90;;;;;;5074868;28;20036;-76
2021/05/22 01:52:55;;;;;;;21.50;2.75;;;11.60;99.90;;;;;;5073554;28;20041;-76
2021/05/22 01:55:22;;;;;;;20.10;2.72;;;11.60;99.90;;;;;;5061080;28;20034;-76
2021/05/22 01:57:49;;;;;;;15.95;2.17;;;11.60;99.90;;;;;;5072541;28;20504;-76
2021/05/22 02:00:16;;;;;;;9.23;2.33;;;11.60;99.90;;;;;;5074324;28;20496;-76
2021/05/22 02:02:56;;;;;;;14.25;2.47;;;11.40;99.90;;;;;;5074553;28;20044;-76
2021/05/22 02:05:24;;;;;;;11.80;2.40;;;11.50;99.90;;;;;;5074351;28;20081;-77
2021/05/22 02:07:53;;;;;;;12.68;2.45;;;11.50;99.90;;;;;;5074649;28;20123;-76
2021/05/22 02:10:20;;;;;;;15.00;2.80;;;11.60;99.90;;;;;;5073269;28;20041;-77
2021/05/22 02:12:51;;;;;;;15.15;2.38;;;11.50;99.90;;;;;;5054543;28;20398;-76
2021/05/22 02:15:21;;;;;;;12.43;2.28;;;11.50;99.90;;;;;;5072839;28;20926;-77
2021/05/22 02:17:48;;;;;;;10.90;1.90;;;11.50;99.90;;;;;;5072776;28;20038;-76
2021/05/22 02:20:16;;;;;;;14.73;2.33;;;11.50;99.90;;;;;;5073075;28;20036;-76
2021/05/22 02:22:44;;;;;;;13.73;2.40;;;11.40;99.90;;;;;;5072867;28;20036;-76
2021/05/22 02:25:12;;;;;;;9.07;1.90;;;11.40;99.90;;;;;;5072790;28;20067;-76
2021/05/22 02:27:38;;;;;;;11.93;2.10;;;11.40;99.90;;;;;;5074055;28;20071;-76
2021/05/22 02:30:14;;;;;;;9.50;1.98;;;11.40;99.90;;;;;;5053398;28;20032;-76
2021/05/22 02:32:43;;;;;;;10.02;2.22;;;11.40;99.90;;;;;;5073877;28;20052;-76
2021/05/22 02:35:10;;;;;;;12.20;2.28;;;11.70;99.90;;;;;;5072875;28;20043;-76
2021/05/22 02:37:37;;;;;;;9.98;2.22;;;11.40;99.90;;;;;;5072715;28;20052;-76
2021/05/22 02:40:13;;;;;;;10.30;2.05;;;11.40;99.90;;;;;;5055862;28;20032;-76
2021/05/22 02:42:44;;;;;;;12.65;2.42;;;11.30;99.90;;;;;;5072530;28;20036;-76
2021/05/22 02:45:12;;;;;;;16.20;2.50;;;11.40;99.90;;;;;;5072557;28;20090;-76
2021/05/22 02:47:41;;;;;;;9.43;2.15;;;11.30;99.90;;;;;;5070817;28;20055;-76
2021/05/22 02:50:10;;;;;;;10.23;2.20;;;11.40;99.90;;;;;;5074192;28;20494;-79
2021/05/22 02:52:38;;;;;;;10.05;1.98;;;11.30;99.90;;;;;;5072722;28;20441;-76
2021/05/22 02:55:09;;;;;;;13.73;2.33;;;11.30;99.90;;;;;;5072388;28;20037;-76
2021/05/22 02:57:38;;;;;;;7.85;2.40;;;11.30;99.90;;;;;;5055430;28;20523;-76
2021/05/22 03:00:06;;;;;;;8.05;2.47;;;11.30;99.90;;;;;;5073310;28;20036;-76
2021/05/22 03:02:33;;;;;;;10.23;2.28;;;11.20;99.90;;;;;;5073363;28;20047;-76
2021/05/22 03:04:59;;;;;;;9.55;1.90;;;11.20;99.90;;;;;;5070285;28;20384;-76
2021/05/22 03:07:26;;;;;;;12.70;2.10;;;11.20;99.90;;;;;;5071092;28;20037;-75
2021/05/22 03:09:53;;;;;;;9.82;2.10;;;11.10;99.90;;;;;;5071714;28;20037;-75
2021/05/22 03:12:22;;;;;;;7.20;1.70;;;11.10;99.90;;;;;;5073091;28;20506;-75
2021/05/22 03:14:48;;;;;;;11.27;2.20;;;11.00;99.90;;;;;;5073194;28;20041;-75
2021/05/22 03:17:16;;;;;;;9.32;2.05;;;11.10;99.90;;;;;;5072042;28;20396;-75
2021/05/22 03:19:42;;;;;;;8.98;2.30;;;11.00;99.90;;;;;;5071835;28;20032;-75
2021/05/22 03:22:08;;;;;;;8.98;2.25;;;11.10;99.90;;;;;;5072869;28;20040;-77
2021/05/22 03:24:34;;;;;;;8.43;1.70;;;11.00;99.90;;;;;;5072081;28;20067;-76
2021/05/22 03:27:00;;;;;;;10.70;2.03;;;10.90;99.90;;;;;;5071807;28;20417;-75
2021/05/22 03:29:26;;;;;;;11.68;2.67;;;10.90;99.90;;;;;;5071881;28;20040;-75
2021/05/22 03:31:52;;;;;;;10.88;2.22;;;10.90;99.90;;;;;;5071286;28;20369;-75
2021/05/22 03:34:18;;;;;;;14.07;2.55;;;10.80;99.90;;;;;;5072979;28;20468;-75
2021/05/22 03:36:45;;;;;;;9.48;2.13;;;10.80;99.90;;;;;;5069995;28;20161;-75
2021/05/22 03:39:10;;;;;;;7.30;1.70;;;10.70;99.90;;;;;;5071611;28;20029;-75
2021/05/22 03:41:37;;;;;;;9.43;2.17;;;10.70;99.90;;;;;;5072816;28;20061;-76
2021/05/22 03:44:03;;;;;;;11.32;2.20;;;10.70;99.90;;;;;;5072579;28;20024;-76
2021/05/22 03:46:29;;;;;;;8.70;2.10;;;10.60;99.90;;;;;;5071317;28;20115;-76
2021/05/22 03:48:55;;;;;;;12.20;2.47;;;10.60;99.90;;;;;;5038413;28;20044;-76
2021/05/22 03:51:22;;;;;;;10.10;2.15;;;10.50;99.90;;;;;;5071673;28;20408;-77
2021/05/22 03:53:47;;;;;;;7.10;1.95;;;10.50;99.90;;;;;;5053121;28;20047;-77
2021/05/22 03:56:16;;;;;;;14.07;2.22;;;10.60;99.90;;;;;;5071439;28;20056;-77
2021/05/22 03:58:42;;;;;;;12.57;2.55;;;10.50;99.90;;;;;;5072528;28;20036;-77
2021/05/22 04:01:08;;;;;;;8.20;1.98;;;10.40;99.90;;;;;;5071049;28;20542;-77
2021/05/22 04:03:34;;;;;;;9.23;2.38;;;10.40;99.90;;;;;;5071284;28;20111;-77
2021/05/22 04:06:00;;;;;;;11.82;2.03;;;10.40;99.90;;;;;;5054340;28;20040;-77
2021/05/22 04:08:27;;;;;;;13.88;2.13;;;10.40;99.90;;;;;;5071172;28;20060;-77
2021/05/22 04:10:53;;;;;;;8.77;2.15;;;10.70;99.90;;;;;;5069615;28;20153;-78
2021/05/22 04:13:19;;;;;;;10.00;2.30;;;10.30;99.90;;;;;;5071101;28;20040;-76
2021/05/22 04:15:45;;;;;;;9.93;2.65;;;10.30;99.90;;;;;;5054531;28;20419;-76
2021/05/22 04:18:12;;;;;;;8.50;2.00;;;10.30;99.90;;;;;;5072304;28;20090;-76
2021/05/22 04:20:39;;;;;;;10.93;2.33;;;10.30;99.90;;;;;;5070773;28;20377;-77
2021/05/22 04:23:04;;;;;;;10.52;2.45;;;10.30;99.90;;;;;;5072740;28;20040;-77
2021/05/22 04:25:30;;;;;;;10.38;2.40;;;10.30;99.90;;;;;;5075395;28;20392;-77
2021/05/22 04:27:56;;;;;;;13.40;2.28;;;10.20;99.90;;;;;;5075021;28;20448;-77
2021/05/22 04:30:24;;;;;;;8.82;2.60;;;10.20;99.90;;;;;;5076505;28;20060;-77
2021/05/22 04:32:50;;;;;;;12.52;2.42;;;10.20;99.90;;;;;;5075264;28;20037;-80
2021/05/22 04:35:16;;;;;;;11.15;2.40;;;10.20;99.90;;;;;;5076546;28;20036;-79
2021/05/22 04:37:43;;;;;;;12.95;2.20;;;10.20;99.90;;;;;;5074861;28;20033;-79
2021/05/22 04:40:10;;;;;;;10.18;2.35;;;10.20;99.90;;;;;;5074696;28;20035;-80
2021/05/22 04:42:36;;;;;;;12.40;2.83;;;10.10;99.90;;;;;;5074707;28;20043;-79
2021/05/22 04:45:04;;;;;;;9.05;2.30;;;10.20;99.90;;;;;;5076451;28;20101;-79
2021/05/22 04:47:30;;;;;;;9.77;2.88;;;10.10;99.90;;;;;;5075804;28;20040;-79
2021/05/22 04:49:56;;;;;;;9.85;2.72;;;10.10;99.90;;;;;;5075910;28;20105;-79
2021/05/22 04:52:23;;;;;;;11.82;2.60;;;10.10;99.90;;;;;;5074640;28;20087;-78
2021/05/22 04:54:50;;;;;;;9.35;2.38;;;10.10;99.90;;;;;;5076089;28;20388;-79
2021/05/22 04:57:16;;;;;;;12.13;2.55;;;10.10;99.90;;;;;;5074539;28;20127;-79
2021/05/22 04:59:42;;;;;;;6.93;2.30;;;10.10;99.90;;;;;;5075781;28;20051;-79
2021/05/22 05:02:08;;;;;;;11.18;2.45;;;10.10;99.90;;;;;;5076032;28;20059;-79
2021/05/22 05:04:34;;;;;;;5.88;2.22;;;10.10;99.90;;;;;;5074469;28;20078;-77
2021/05/22 05:07:03;;;;;;;7.35;2.42;;;10.30;99.90;;;;;;5057909;28;20052;-76
2021/05/22 05:09:29;;;;;;;9.75;2.70;;;10.10;99.90;;;;;;5074222;28;20099;-76
2021/05/22 05:11:55;;;;;;;10.80;2.33;;;10.10;99.90;;;;;;5074025;28;20131;-77
2021/05/22 05:14:21;;;;;;;9.38;2.13;;;10.10;99.90;;;;;;5074023;28;20451;-76
2021/05/22 05:16:47;;;;;;;11.07;2.67;;;10.10;99.90;;;;;;5075364;28;20076;-76
2021/05/22 05:19:13;;;;;;;9.50;2.47;;;10.10;99.90;;;;;;5075346;28;20112;-78
2021/05/22 05:21:39;;;;;;;10.43;2.70;;;10.10;99.90;;;;;;5073962;28;20095;-78
2021/05/22 05:24:05;;;;;;;12.00;2.60;;;10.10;99.90;;;;;;5075160;28;20036;-77
2021/05/22 05:26:31;;;;;;;13.55;3.75;;;10.10;99.90;;;;;;5057061;28;20024;-77
2021/05/22 05:28:59;;;;;;;9.27;2.80;;;10.30;99.90;;;;;;5072808;28;20032;-77
2021/05/22 05:31:25;;;;;;;5.78;2.30;;;10.30;99.90;;;;;;5074976;28;20036;-76
2021/05/22 05:33:55;;;;;;;7.97;2.47;;;10.20;99.90;;;;;;5075016;28;20044;-77
2021/05/22 05:36:24;;;;;;;9.63;2.90;;;10.20;99.90;;;;;;5074045;28;20036;-80
2021/05/22 05:38:50;;;;;;;10.35;2.30;;;10.20;99.90;;;;;;5073562;28;20044;-78
2021/05/22 05:41:16;;;;;;;11.25;2.97;;;10.90;99.90;;;;;;5074167;28;20085;-79
2021/05/22 05:43:42;;;;;;;10.07;2.40;;;10.20;99.90;;;;;;5074940;28;20032;-79
2021/05/22 05:46:08;;;;;;;15.02;3.25;;;10.20;99.90;;;;;;5056280;28;20446;-79
2021/05/22 05:48:33;;;;;;;7.13;2.33;;;10.20;99.90;;;;;;5074018;28;20060;-79
2021/05/22 05:50:59;;;;;;;10.57;2.92;;;10.20;99.90;;;;;;5072157;28;20472;-79
2021/05/22 05:53:25;;;;;;;8.52;2.40;;;10.30;99.90;;;;;;5065810;28;20045;-79
2021/05/22 05:55:51;;;;;;;8.07;2.40;;;10.30;99.90;;;;;;5072013;28;20041;-79
2021/05/22 05:58:17;;;;;;;7.82;2.58;;;10.30;99.90;;;;;;5063825;28;20113;-79
2021/05/22 06:00:43;;;;;;;7.53;2.22;;;10.30;99.90;;;;;;5074425;28;20337;-79
2021/05/22 06:03:26;;;;;;;9.32;2.33;;;10.40;99.90;;;;;;5072335;28;20191;-80
2021/05/22 06:05:52;;;;;;;8.13;2.28;;;10.30;99.90;;;;;;5059593;28;20037;-78
2021/05/22 06:08:22;;;;;;;7.00;2.60;;;10.40;99.90;;;;;;5075219;28;20032;-77
2021/05/22 06:10:50;;;;;;;9.88;2.50;;;10.30;99.90;;;;;;5075996;28;20070;-78
2021/05/22 06:13:28;;;;;;;6.15;2.20;;;10.30;99.90;;;;;;5075779;28;20036;-80
2021/05/22 06:16:01;;;;;;;10.40;2.22;;;10.30;99.90;;;;;;5058869;28;20058;-80
2021/05/22 06:18:38;;;;;;;5.07;2.10;;;10.30;99.90;;;;;;5077475;28;20044;-80
2021/05/22 06:21:05;;;;;;;5.90;2.47;;;10.30;99.90;;;;;;5074618;28;20060;-79
2021/05/22 06:23:32;;;;;;;7.05;2.30;;;10.30;99.90;;;;;;5081241;28;20048;-78
2021/05/22 06:25:59;;;;;;;6.57;2.15;;;10.30;99.90;;;;;;5081013;28;20036;-79
2021/05/22 06:28:25;;;;;;;9.55;2.40;;;10.30;99.90;;;;;;5064614;28;20051;-79
2021/05/22 06:30:51;;;;;;;8.30;2.60;;;10.30;99.90;;;;;;5077430;28;20039;-79
2021/05/22 06:33:18;;;;;;;8.05;2.30;;;10.30;99.90;;;;;;5075975;28;20101;-75
2021/05/22 06:35:43;;;;;;;7.30;2.10;;;10.30;99.90;;;;;;5076347;28;20044;-76
2021/05/22 06:38:10;;;;;;;6.65;2.45;;;10.30;99.90;;;;;;5075213;28;20446;-75
2021/05/22 06:40:36;;;;;;;5.65;2.22;;;10.00;99.90;;;;;;5074116;28;20412;-76
2021/05/22 06:43:02;;;;;;;8.88;2.60;;;9.90;99.90;;;;;;5073673;28;20043;-77
2021/05/22 06:45:38;;;;;;;10.88;2.33;;;10.30;99.90;;;;;;5072250;28;20044;-78
2021/05/22 06:48:07;;;;;;;7.40;2.25;;;10.20;99.90;;;;;;5073514;28;20043;-78
2021/05/22 06:50:35;;;;;;;5.20;2.10;;;10.20;99.90;;;;;;5073990;28;20033;-77
2021/05/22 06:53:02;;;;;;;6.95;2.35;;;10.20;99.90;;;;;;5072878;28;20063;-78
2021/05/22 06:55:28;;;;;;;6.50;2.58;;;10.20;99.90;;;;;;5073166;28;20044;-80
2021/05/22 06:57:54;;;;;;;10.00;2.67;;;10.20;99.90;;;;;;5039284;28;20447;-80
2021/05/22 07:00:21;;;;;;;5.50;2.50;;;10.20;99.90;;;;;;5072170;28;20059;-78
2021/05/22 07:02:48;;;;;;;7.38;2.50;;;10.20;99.90;;;;;;5071558;28;20033;-76
2021/05/22 07:05:15;;;;;;;8.05;2.80;;;10.20;99.90;;;;;;5072218;28;20036;-76
2021/05/22 07:08:02;;;;;;;6.25;2.40;;;10.20;99.90;;;;;;5054791;28;20044;-75
2021/05/22 07:10:29;;;;;;;8.68;2.60;;;10.20;99.90;;;;;;5072261;28;20044;-76
2021/05/22 07:12:54;;;;;;;9.65;3.08;;;10.20;99.90;;;;;;5072736;28;20078;-78
2021/05/22 07:15:21;;;;;;;8.32;3.30;;;10.20;99.90;;;;;;5072149;28;20036;-77
2021/05/22 07:17:47;;;;;;;7.72;2.85;;;10.50;99.90;;;;;;5072069;28;20047;-76
2021/05/22 07:20:14;;;;;;;6.82;2.67;;;10.20;99.90;;;;;;5071989;28;20037;-76
2021/05/22 07:22:40;;;;;;;10.73;3.50;;;10.30;99.90;;;;;;5070253;28;20398;-74
2021/05/22 07:25:06;;;;;;;6.72;3.13;;;10.30;99.90;;;;;;5072775;28;20067;-74
2021/05/22 07:27:36;;;;;;;8.55;2.90;;;10.30;99.90;;;;;;5072211;28;20044;-75
2021/05/22 07:30:08;;;;;;;4.85;2.45;;;10.40;99.90;;;;;;5071730;28;20040;-74
2021/05/22 07:32:35;;;;;;;4.35;2.20;;;10.40;99.90;;;;;;5071747;28;20365;-75
2021/05/22 07:35:01;;;;;;;8.13;2.20;;;10.40;99.90;;;;;;5072505;28;20071;-70
2021/05/22 07:37:28;;;;;;;4.78;2.45;;;10.40;99.90;;;;;;5070461;28;20036;-71
2021/05/22 07:39:56;;;;;;;7.25;2.55;;;10.40;99.90;;;;;;5072481;28;20400;-71
2021/05/22 07:42:22;;;;;;;4.75;1.95;;;10.50;99.90;;;;;;5070455;28;20032;-72
2021/05/22 07:44:48;;;;;;;4.50;1.95;;;10.40;99.90;;;;;;5072766;28;20519;-79
2021/05/22 07:47:14;;;;;;;3.63;1.60;;;10.60;99.90;;;;;;5072506;28;20040;-80
2021/05/22 07:49:42;;;;;;;9.30;1.83;;;10.50;99.90;;;;;;5069982;28;20522;-76
2021/05/22 07:52:10;;;;;;;4.60;2.05;;;10.50;99.90;;;;;;5069736;28;20067;-75
2021/05/22 07:54:38;;;;;;;6.28;2.13;;;10.50;99.90;;;;;;5064749;28;20040;-74
2021/05/22 07:57:06;;;;;;;5.13;1.60;;;10.50;99.90;;;;;;5067590;28;20073;-74
2021/05/22 07:59:32;;;;;;;5.28;1.67;;;10.50;99.90;;;;;;5068785;28;20044;-70
2021/05/22 08:02:01;;;;;;;14.32;2.60;;;10.60;99.90;;;;;;5071234;28;20052;-75
2021/05/22 08:04:27;;;;;;;8.30;2.00;;;10.50;99.90;;;;;;5068138;28;20033;-80
2021/05/22 08:06:53;;;;;;;4.25;2.20;;;10.50;99.90;;;;;;5071359;28;20036;-80
2021/05/22 08:09:19;;;;;;;5.53;2.40;;;10.50;99.90;;;;;;5052795;28;20052;-76
2021/05/22 08:11:46;;;;;;;5.50;2.25;;;10.60;99.90;;;;;;5071430;28;20041;-79
2021/05/22 08:14:14;;;;;;;4.18;2.30;;;11.10;99.90;;;;;;5065515;28;20036;-78
2021/05/22 08:16:42;;;;;;;6.35;2.42;;;10.60;99.90;;;;;;5067422;28;20049;-80
2021/05/22 08:19:09;;;;;;;7.13;2.80;;;10.60;99.90;;;;;;5065003;28;20040;-77
2021/05/22 08:21:35;;;;;;;6.25;2.97;;;10.70;99.90;;;;;;5060683;28;20036;-78
2021/05/22 08:24:01;;;;;;;6.57;3.72;;;10.80;99.90;;;;;;5072402;28;20041;-76
2021/05/22 08:26:27;;;;;;;8.35;3.42;;;10.70;99.90;;;;;;5054454;28;20522;-74
2021/05/22 08:28:53;;;;;;;6.25;3.33;;;10.80;99.90;;;;;;5067925;28;20041;-77
2021/05/22 08:31:20;;;;;;;9.20;4.65;;;10.80;99.90;;;;;;5067485;28;20033;-74
2021/05/22 08:33:46;;;;;;;7.20;4.43;;;10.80;99.90;;;;;;5069297;28;20041;-78
2021/05/22 08:36:12;;;;;;;9.07;3.28;;;10.80;99.90;;;;;;5042799;28;20090;-76
2021/05/22 08:38:38;;;;;;;6.50;3.10;;;10.90;99.90;;;;;;5071159;28;20032;-76
2021/05/22 08:41:06;;;;;;;10.15;3.65;;;11.00;99.90;;;;;;5072036;28;20032;-77
2021/05/22 08:43:32;;;;;;;10.52;4.13;;;10.90;99.90;;;;;;5072139;28;20036;-76
2021/05/22 08:45:58;;;;;;;10.40;3.78;;;10.90;99.90;;;;;;5070746;28;20078;-76
2021/05/22 08:48:25;;;;;;;11.02;4.05;;;11.00;99.90;;;;;;5071017;28;20043;-76
2021/05/22 08:50:51;;;;;;;12.10;4.35;;;11.20;99.90;;;;;;5070727;28;20035;-76
2021/05/22 08:53:17;;;;;;;12.55;5.32;;;11.10;99.90;;;;;;5052934;28;20052;-76
2021/05/22 08:55:44;;;;;;;18.85;5.80;;;11.10;99.90;;;;;;5070803;28;20125;-76
2021/05/22 08:58:10;;;;;;;17.02;5.20;;;11.20;99.90;;;;;;5070697;28;20044;-76
2021/05/22 09:00:40;;;;;;;13.77;4.60;;;11.30;99.90;;;;;;5070889;28;20454;-76
2021/05/22 09:03:11;;;;;;;19.05;5.35;;;11.40;99.90;;;;;;5059313;28;20115;-75
2021/05/22 09:05:38;;;;;;;17.35;5.25;;;11.40;99.90;;;;;;5066036;28;20037;-74
2021/05/22 09:08:08;;;;;;;13.45;4.78;;;11.40;99.90;;;;;;5070710;28;20060;-74
2021/05/22 09:10:41;;;;;;;16.50;4.78;;;11.40;99.90;;;;;;5074691;28;20032;-74
2021/05/22 09:13:09;;;;;;;11.52;5.72;;;11.50;99.90;;;;;;5074434;28;20028;-75
2021/05/22 09:15:41;;;;;;;12.70;4.60;;;11.40;99.90;;;;;;5074664;28;20040;-76
2021/05/22 09:18:11;;;;;;;14.93;4.90;;;11.50;99.90;;;;;;5074816;28;20032;-76
2021/05/22 09:20:37;;;;;;;9.73;4.20;;;11.50;99.90;;;;;;5074607;28;20039;-77
2021/05/22 09:23:07;;;;;;;14.88;4.35;;;11.50;99.90;;;;;;5074759;28;20041;-77
2021/05/22 09:25:37;;;;;;;16.30;4.82;;;11.60;99.90;;;;;;5074727;28;20036;-77
2021/05/22 09:28:09;;;;;;;10.05;3.60;;;11.60;99.90;;;;;;5074400;28;20040;-75
2021/05/22 09:30:39;;;;;;;12.07;4.00;;;11.70;99.90;;;;;;5069096;28;20033;-76
2021/05/22 09:33:15;;;;;;;12.10;4.25;;;11.70;99.90;;;;;;5075150;28;20066;-75
2021/05/22 09:35:48;;;;;;;12.48;4.38;;;11.70;99.90;;;;;;5075339;28;20047;-76
2021/05/22 09:38:14;;;;;;;14.93;4.45;;;11.80;99.90;;;;;;5073803;28;20055;-78
2021/05/22 09:40:42;;;;;;;12.43;4.28;;;11.90;99.90;;;;;;5074984;28;20040;-79
2021/05/22 09:43:09;;;;;;;15.32;4.00;;;12.10;99.90;;;;;;5074011;28;20480;-78
2021/05/22 09:45:45;;;;;;;11.90;3.88;;;12.00;99.90;;;;;;5073177;28;20040;-80
2021/05/22 09:48:17;;;;;;;13.95;4.18;;;12.00;99.90;;;;;;5075049;28;20433;-76
2021/05/22 09:50:44;;;;;;;9.52;3.92;;;12.00;99.90;;;;;;5074680;28;20048;-75
2021/05/22 09:53:35;;;;;;;10.65;3.50;;;12.00;99.90;;;;;;5073653;28;20041;-79
2021/05/22 09:56:19;;;;;;;11.20;3.72;;;12.00;99.90;;;;;;5073072;28;20481;-75
2021/05/22 09:58:57;;;;;;;11.20;3.80;;;12.00;99.90;;;;;;5073270;28;20048;-74
2021/05/22 10:01:31;;;;;;;13.27;3.60;;;12.00;99.90;;;;;;5057031;28;20047;-73
2021/05/22 10:04:15;;;;;;;9.43;2.92;;;12.10;99.90;;;;;;5074983;28;20471;-74
2021/05/22 10:06:42;;;;;;;8.10;2.85;;;12.10;99.90;;;;;;5073290;28;20044;-76
2021/05/22 10:09:16;;;;;;;9.27;2.67;;;12.10;99.90;;;;;;5074578;28;20472;-76
2021/05/22 10:12:09;;;;;;;8.75;2.70;;;12.10;99.90;;;;;;5065575;28;20036;-73
2021/05/22 10:14:45;;;;;;;10.68;2.65;;;12.20;99.90;;;;;;5074601;28;20038;-75
2021/05/22 10:17:12;;;;;;;8.13;2.20;;;12.30;99.90;;;;;;5074278;28;20040;-75
2021/05/22 10:19:40;;;;;;;9.48;2.08;;;12.30;99.90;;;;;;5072416;28;20067;-75
2021/05/22 10:22:07;;;;;;;9.82;2.33;;;12.40;99.90;;;;;;5072375;28;20060;-75
2021/05/22 10:24:33;;;;;;;11.15;2.75;;;12.40;99.90;;;;;;5073415;28;20438;-75
2021/05/22 10:27:00;;;;;;;10.02;2.50;;;12.50;99.90;;;;;;5073983;28;20032;-74
2021/05/22 10:29:33;;;;;;;9.77;2.78;;;12.50;99.90;;;;;;5074151;28;20039;-72
2021/05/22 10:31:59;;;;;;;6.95;2.53;;;12.60;99.90;;;;;;5071174;28;20043;-73
2021/05/22 10:34:35;;;;;;;8.82;2.42;;;12.80;99.90;;;;;;5073066;28;20109;-75
2021/05/22 10:37:04;;;;;;;9.38;3.45;;;12.80;99.90;;;;;;5072535;28;20112;-76
2021/05/22 10:39:41;;;;;;;10.88;3.22;;;13.10;99.90;;;;;;5073942;28;20461;-77
2021/05/22 10:42:30;;;;;;;6.28;2.13;;;12.70;99.90;;;;;;5074224;28;20113;-77
2021/05/22 10:44:58;;;;;;;10.00;2.40;;;12.70;99.90;;;;;;5073314;28;20036;-76
2021/05/22 10:47:29;;;;;;;9.23;2.50;;;12.60;99.90;;;;;;5073946;28;20036;-76
2021/05/22 10:50:05;;;;;;;10.90;2.58;;;12.70;99.90;;;;;;5074104;28;20067;-77
2021/05/22 10:52:34;;;;;;;9.70;2.22;;;12.70;99.90;;;;;;5072518;28;20499;-78
2021/05/22 10:55:43;;;;;;;8.75;2.42;;;12.60;99.90;;;;;;5072727;28;20063;-78
2021/05/22 10:58:11;;;;;;;7.85;1.98;;;12.50;99.90;;;;;;5059053;28;20059;-79
2021/05/22 11:00:37;;;;;;;11.55;2.40;;;12.30;99.90;;;;;;5068896;28;20103;-78
2021/05/22 11:03:06;;;;;;;8.88;2.15;;;12.30;99.90;;;;;;5065251;28;20036;-76
2021/05/22 11:05:35;;;;;;;12.35;2.72;;;12.30;99.90;;;;;;5072766;28;20033;-77
2021/05/22 11:08:04;;;;;;;7.22;2.30;;;12.30;99.90;;;;;;5072142;28;20043;-75
2021/05/22 11:10:44;;;;;;;6.82;2.13;;;12.40;99.90;;;;;;5073433;28;20040;-77
2021/05/22 11:13:21;;;;;;;7.80;1.48;;;12.40;99.90;;;;;;5071516;28;20407;-78
2021/05/22 11:15:57;;;;;;;9.52;2.08;;;12.40;99.90;;;;;;5060497;28;20477;-77
2021/05/22 11:18:46;;;;;;;7.15;2.03;;;12.40;99.90;;;;;;5057131;28;20086;-77
2021/05/22 11:21:20;;;;;;;5.72;1.55;;;12.40;99.90;;;;;;5069035;28;20045;-76
2021/05/22 11:24:01;;;;;;;10.80;2.00;;;12.50;99.90;;;;;;5073110;28;20064;-77
2021/05/22 11:26:53;;;;;;;8.20;2.08;;;12.50;99.90;;;;;;5073493;28;20059;-76
2021/05/22 11:29:21;;;;;;;7.65;1.85;;;12.60;99.90;;;;;;5070875;28;20052;-74
2021/05/22 11:31:48;;;;;;;5.80;1.60;;;12.70;99.90;;;;;;5071053;28;20036;-75
2021/05/22 11:34:20;;;;;;;8.60;1.80;;;12.80;99.90;;;;;;5072806;28;20072;-75
2021/05/22 11:37:10;;;;;;;10.65;1.77;;;12.80;99.90;;;;;;5066963;28;20059;-74
2021/05/22 11:39:44;;;;;;;8.80;1.88;;;12.80;99.90;;;;;;5067406;28;20036;-74
2021/05/22 11:42:30;;;;;;;5.95;2.33;;;12.80;99.90;;;;;;5070648;28;20086;-74
2021/05/22 11:44:58;;;;;;;7.28;1.90;;;12.70;99.90;;;;;;5070933;28;20075;-71
2021/05/22 11:47:34;;;;;;;6.93;1.63;;;12.70;99.90;;;;;;5072718;28;20488;-74
2021/05/22 11:50:01;;;;;;;9.05;1.80;;;12.60;99.90;;;;;;5072716;28;20040;-74
2021/05/22 11:52:33;;;;;;;8.18;2.00;;;12.60;99.90;;;;;;5071662;28;20081;-72
2021/05/22 11:55:22;;;;;;;6.03;1.85;;;12.60;99.90;;;;;;5068573;28;20560;-79
2021/05/22 11:58:04;;;;;;;5.07;2.08;;;12.60;99.90;;;;;;5070591;28;20045;-81
2021/05/22 12:00:30;;;;;;;8.98;2.78;;;12.70;99.90;;;;;;5069911;28;20029;-74
2021/05/22 12:02:56;;;;;;;7.20;2.38;;;13.00;99.90;;;;;;5075548;28;20120;-81
2021/05/22 12:05:22;;;;;;;7.55;2.28;;;13.10;99.90;;;;;;5072663;28;20040;-81
2021/05/22 12:07:49;;;;;;;7.95;2.58;;;13.10;99.90;;;;;;5071042;28;20029;-75
2021/05/22 12:10:17;;;;;;;7.13;2.20;;;13.00;99.90;;;;;;5072523;28;20116;-78
2021/05/22 12:12:46;;;;;;;7.57;2.50;;;13.00;99.90;;;;;;5070966;28;20067;-74
2021/05/22 12:15:26;;;;;;;5.22;2.45;;;13.00;99.90;;;;;;5071023;28;20040;-75
2021/05/22 12:18:05;;;;;;;5.45;1.80;;;13.10;99.90;;;;;;5070099;28;20040;-75
2021/05/22 12:20:53;;;;;;;6.78;2.10;;;13.20;99.90;;;;;;5072819;28;20041;-75
2021/05/22 12:23:32;;;;;;;4.57;2.22;;;13.30;99.90;;;;;;5054252;28;20051;-75
2021/05/22 12:26:00;;;;;;;3.63;2.20;;;13.40;99.90;;;;;;5071109;28;20032;-75
2021/05/22 12:28:28;;;;;;;5.60;2.03;;;13.40;99.90;;;;;;5054419;28;20105;-75
2021/05/22 12:30:58;;;;;;;4.60;2.30;;;13.40;99.90;;;;;;5072402;28;20392;-75
2021/05/22 12:33:25;;;;;;;5.40;2.55;;;13.50;99.90;;;;;;5070047;28;20477;-75
2021/05/22 12:36:09;;;;;;;3.92;2.40;;;13.40;99.90;;;;;;5071011;28;20036;-75
2021/05/22 12:38:42;;;;;;;7.75;2.67;;;13.30;99.90;;;;;;5070772;28;20369;-75
2021/05/22 12:41:08;;;;;;;7.15;3.08;;;13.10;99.90;;;;;;5072323;28;20029;-75
2021/05/22 12:44:03;;;;;;;6.47;3.20;;;13.00;99.90;;;;;;5072990;28;20044;-75
2021/05/22 12:46:35;;;;;;;6.40;3.50;;;12.80;99.90;;;;;;5058609;28;20056;-75
2021/05/22 12:49:14;;;;;;;5.93;3.17;;;12.80;99.90;;;;;;5076213;28;20115;-75
2021/05/22 12:51:42;;;;;;;8.20;3.58;;;12.70;99.90;;;;;;5074985;28;20480;-75
2021/05/22 12:54:41;;;;;;;8.38;3.53;;;12.70;99.90;;;;;;5075907;28;20051;-75